createdAt,value
2023-09-02T00:01:44.803Z,101568.66
2023-09-02T00:04:06.687Z,101569.03
2023-09-02T00:06:28.417Z,101566.56
2023-09-02T00:08:50.127Z,101554.97
2023-09-02T00:11:11.776Z,101550.13
2023-09-02T00:13:33.500Z,101550.50
2023-09-02T00:15:56.396Z,101546.47
2023-09-02T00:18:18.120Z,101553.22
2023-09-02T00:20:39.844Z,101560.00
2023-09-02T00:23:01.573Z,101559.19
2023-09-02T00:25:26.113Z,101567.56
2023-09-02T00:27:47.781Z,101570.72
2023-09-02T00:30:10.253Z,101569.09
2023-09-02T00:32:31.944Z,101577.84
2023-09-02T00:34:53.625Z,101577.03
2023-09-02T00:37:15.484Z,101571.88
2023-09-02T00:39:37.683Z,101573.88
2023-09-02T00:42:01.842Z,101574.66
2023-09-02T00:44:23.627Z,101573.88
2023-09-02T00:46:46.834Z,101581.44
2023-09-02T00:49:08.655Z,101578.22
2023-09-02T00:51:30.352Z,101576.16
2023-09-02T00:53:52.046Z,101576.13
2023-09-02T00:56:16.103Z,101578.47
2023-09-02T00:58:37.833Z,101567.31
2023-09-02T01:01:00.534Z,101574.47
2023-09-02T01:03:22.579Z,101568.09
2023-09-02T01:05:44.560Z,101568.53
2023-09-02T01:08:07.022Z,101566.56
2023-09-02T01:10:30.514Z,101564.56
2023-09-02T01:12:52.429Z,101566.56
2023-09-02T01:15:14.140Z,101566.09
2023-09-02T01:17:35.894Z,101556.56
2023-09-02T01:20:00.853Z,101556.56
2023-09-02T01:23:09.394Z,101567.34
2023-09-02T01:26:21.081Z,101572.13
2023-09-02T01:28:47.377Z,101566.91
2023-09-02T01:31:16.246Z,101576.13
2023-09-02T01:33:41.304Z,101573.31
2023-09-02T01:36:05.091Z,101583.66
2023-09-02T01:38:29.641Z,101581.69
2023-09-02T01:40:54.752Z,101594.81
2023-09-02T01:43:21.910Z,101593.56
2023-09-02T01:45:44.677Z,101586.38
2023-09-02T01:48:08.406Z,101589.63
2023-09-02T01:50:34.021Z,101595.22
2023-09-02T01:52:58.639Z,101596.81
2023-09-02T01:55:21.194Z,101594.38
2023-09-02T01:57:45.366Z,101594.38
2023-09-02T02:00:08.157Z,101598.00
2023-09-02T02:02:33.633Z,101602.75
2023-09-02T02:05:01.942Z,101599.16
2023-09-02T02:07:32.810Z,101603.13
2023-09-02T02:10:00.487Z,101604.28
2023-09-02T02:12:23.371Z,101608.63
2023-09-02T02:14:48.272Z,101608.22
2023-09-02T02:17:10.344Z,101604.59
2023-09-02T02:19:32.442Z,101611.81
2023-09-02T02:21:54.956Z,101611.81
2023-09-02T02:24:16.660Z,101615.41
2023-09-02T02:26:38.286Z,101617.38
2023-09-02T02:29:00.058Z,101616.06
2023-09-02T02:31:21.730Z,101614.91
2023-09-02T02:33:43.464Z,101611.34
2023-09-02T02:36:06.731Z,101612.53
2023-09-02T02:38:29.438Z,101609.72
2023-09-02T02:40:51.074Z,101615.69
2023-09-02T02:43:12.732Z,101616.06
2023-09-02T02:45:35.093Z,101618.41
2023-09-02T02:47:58.740Z,101621.94
2023-09-02T02:50:20.513Z,101615.47
2023-09-02T02:52:42.372Z,101623.31
2023-09-02T02:55:04.851Z,101623.63
2023-09-02T02:57:26.801Z,101625.16
2023-09-02T02:59:52.558Z,101623.91
2023-09-02T03:02:14.603Z,101625.09
2023-09-02T03:04:36.366Z,101633.47
2023-09-02T03:06:58.080Z,101627.06
2023-09-02T03:09:19.857Z,101631.03
2023-09-02T03:11:45.774Z,101622.22
2023-09-02T03:14:07.421Z,101618.19
2023-09-02T03:16:29.853Z,101620.63
2023-09-02T03:18:54.388Z,101617.44
2023-09-02T03:21:16.179Z,101617.81
2023-09-02T03:23:37.840Z,101621.41
2023-09-02T03:26:17.738Z,101627.00
2023-09-02T03:28:41.808Z,101624.56
2023-09-02T03:31:11.687Z,101623.75
2023-09-02T03:33:37.112Z,101621.31
2023-09-02T03:36:01.030Z,101622.16
2023-09-02T03:38:22.679Z,101622.16
2023-09-02T03:40:44.447Z,101614.59
2023-09-02T03:43:06.933Z,101617.38
2023-09-02T03:45:28.651Z,101621.78
2023-09-02T03:47:51.382Z,101627.34
2023-09-02T03:50:14.011Z,101621.78
2023-09-02T03:52:35.686Z,101628.53
2023-09-02T03:54:59.126Z,101622.97
2023-09-02T03:57:21.127Z,101623.31
2023-09-02T03:59:42.790Z,101631.69
2023-09-02T04:02:04.539Z,101628.09
2023-09-02T04:04:27.101Z,101628.44
2023-09-02T04:06:48.888Z,101626.47
2023-09-02T04:09:10.952Z,101626.47
2023-09-02T04:11:32.933Z,101640.44
2023-09-02T04:13:55.534Z,101643.56
2023-09-02T04:16:17.248Z,101641.13
2023-09-02T04:18:39.572Z,101647.91
2023-09-02T04:21:03.998Z,101639.53
2023-09-02T04:23:27.476Z,101644.31
2023-09-02T04:25:57.976Z,101650.69
2023-09-02T04:28:21.036Z,101654.63
2023-09-02T04:30:44.877Z,101647.00
2023-09-02T04:33:07.928Z,101650.97
2023-09-02T04:35:30.175Z,101659.34
2023-09-02T04:37:52.177Z,101659.34
2023-09-02T04:40:15.375Z,101656.91
2023-09-02T04:42:42.186Z,101662.41
2023-09-02T04:45:04.767Z,101660.41
2023-09-02T04:47:27.514Z,101663.56
2023-09-02T04:49:51.226Z,101657.97
2023-09-02T04:52:12.888Z,101661.97
2023-09-02T04:54:34.584Z,101673.09
2023-09-02T04:56:56.354Z,101672.31
2023-09-02T04:59:18.099Z,101670.31
2023-09-02T05:01:41.953Z,101667.09
2023-09-02T05:04:03.886Z,101669.75
2023-09-02T05:06:25.622Z,101667.69
2023-09-02T05:08:55.156Z,101668.50
2023-09-02T05:11:18.119Z,101671.72
2023-09-02T05:13:39.925Z,101677.75
2023-09-02T05:16:02.339Z,101675.75
2023-09-02T05:18:24.292Z,101678.22
2023-09-02T05:20:48.782Z,101683.47
2023-09-02T05:23:13.958Z,101684.72
2023-09-02T05:25:35.915Z,101683.53
2023-09-02T05:27:59.591Z,101688.28
2023-09-02T05:30:21.308Z,101691.88
2023-09-02T05:32:42.995Z,101682.34
2023-09-02T05:35:05.403Z,101698.81
2023-09-02T05:37:27.072Z,101691.31
2023-09-02T05:39:48.880Z,101693.41
2023-09-02T05:42:10.791Z,101701.03
2023-09-02T05:44:35.714Z,101702.28
2023-09-02T05:46:57.401Z,101708.31
2023-09-02T05:49:19.580Z,101719.53
2023-09-02T05:51:41.588Z,101719.19
2023-09-02T05:54:03.993Z,101714.84
2023-09-02T05:56:26.648Z,101726.88
2023-09-02T05:58:48.470Z,101726.19
2023-09-02T06:01:10.217Z,101730.56
2023-09-02T06:03:32.223Z,101730.97
2023-09-02T06:05:53.934Z,101733.81
2023-09-02T06:08:16.458Z,101725.88
2023-09-02T06:10:39.179Z,101733.53
2023-09-02T06:13:00.967Z,101732.38
2023-09-02T06:15:22.877Z,101732.78
2023-09-02T06:17:44.632Z,101743.25
2023-09-02T06:20:07.533Z,101741.75
2023-09-02T06:22:29.411Z,101736.63
2023-09-02T06:24:51.543Z,101746.59
2023-09-02T06:27:13.222Z,101749.03
2023-09-02T06:29:35.121Z,101755.88
2023-09-02T06:31:56.953Z,101765.50
2023-09-02T06:34:23.932Z,101771.59
2023-09-02T06:36:46.462Z,101762.13
2023-09-02T06:39:08.110Z,101765.06
2023-09-02T06:41:29.780Z,101763.97
2023-09-02T06:43:51.887Z,101761.72
2023-09-02T06:46:20.879Z,101757.13
2023-09-02T06:48:43.006Z,101761.66
2023-09-02T06:51:04.858Z,101767.75
2023-09-02T06:53:26.617Z,101781.78
2023-09-02T06:55:48.280Z,101779.44
2023-09-02T06:58:09.973Z,101782.38
2023-09-02T07:00:31.696Z,101782.50
2023-09-02T07:02:53.459Z,101792.63
2023-09-02T07:05:15.192Z,101797.94
2023-09-02T07:07:39.210Z,101801.34
2023-09-02T07:10:02.000Z,101817.44
2023-09-02T07:12:23.652Z,101813.16
2023-09-02T07:14:45.669Z,101825.97
2023-09-02T07:17:07.350Z,101823.19
2023-09-02T07:19:28.966Z,101827.13
2023-09-02T07:21:51.013Z,101836.34
2023-09-02T07:24:12.672Z,101839.06
2023-09-02T07:26:34.365Z,101844.66
2023-09-02T07:28:56.285Z,101853.50
2023-09-02T07:31:18.268Z,101855.53
2023-09-02T07:33:42.649Z,101853.97
2023-09-02T07:36:14.617Z,101860.13
2023-09-02T07:38:40.175Z,101854.94
2023-09-02T07:41:02.527Z,101861.44
2023-09-02T07:43:24.315Z,101868.66
2023-09-02T07:45:46.068Z,101868.25
2023-09-02T07:48:07.778Z,101871.06
2023-09-02T07:50:29.546Z,101871.94
2023-09-02T07:52:51.329Z,101876.41
2023-09-02T07:55:13.032Z,101882.88
2023-09-02T07:57:34.777Z,101876.56
2023-09-02T07:59:56.513Z,101880.59
2023-09-02T08:02:18.203Z,101884.19
2023-09-02T08:04:39.987Z,101892.13
2023-09-02T08:07:01.700Z,101888.19
2023-09-02T08:09:23.408Z,101886.22
2023-09-02T08:11:45.049Z,101876.72
2023-09-02T08:14:06.788Z,101878.84
2023-09-02T08:16:28.464Z,101890.16
2023-09-02T08:18:50.107Z,101892.28
2023-09-02T08:21:12.479Z,101891.88
2023-09-02T08:23:34.133Z,101895.44
2023-09-02T08:25:55.835Z,101892.88
2023-09-02T08:28:17.684Z,101892.88
2023-09-02T08:30:42.752Z,101906.03
2023-09-02T08:33:04.997Z,101904.78
2023-09-02T08:35:26.849Z,101903.09
2023-09-02T08:37:48.584Z,101898.97
2023-09-02T08:40:10.598Z,101886.22
2023-09-02T08:42:35.828Z,101903.81
2023-09-02T08:45:00.562Z,101896.13
2023-09-02T08:47:25.601Z,101898.19
2023-09-02T08:49:47.807Z,101904.53
2023-09-02T08:52:10.732Z,101908.47
2023-09-02T08:54:33.953Z,101917.25
2023-09-02T08:56:58.920Z,101912.47
2023-09-02T08:59:21.329Z,101911.72
2023-09-02T09:01:46.852Z,101912.16
2023-09-02T09:04:09.678Z,101908.56
2023-09-02T09:06:34.969Z,101909.38
2023-09-02T09:08:58.246Z,101904.88
2023-09-02T09:11:23.951Z,101905.25
2023-09-02T09:13:47.536Z,101909.69
2023-09-02T09:16:09.559Z,101916.50
2023-09-02T09:18:31.703Z,101909.81
2023-09-02T09:20:54.911Z,101908.25
2023-09-02T09:23:16.959Z,101906.34
2023-09-02T09:25:38.973Z,101912.41
2023-09-02T09:28:12.345Z,101913.66
2023-09-02T09:30:34.178Z,101922.50
2023-09-02T09:33:02.147Z,101933.75
2023-09-02T09:35:23.911Z,101937.72
2023-09-02T09:37:57.110Z,101950.28
2023-09-02T09:40:31.302Z,101950.03
2023-09-02T09:42:53.106Z,101956.88
2023-09-02T09:45:14.747Z,101959.66
2023-09-02T09:47:36.429Z,101956.47
2023-09-02T09:50:18.279Z,101965.34
2023-09-02T09:52:40.074Z,101971.75
2023-09-02T09:55:01.754Z,101972.19
2023-09-02T09:57:38.224Z,101976.28
2023-09-02T10:00:00.281Z,101979.19
2023-09-02T10:02:23.165Z,101988.13
2023-09-02T10:04:55.728Z,101981.81
2023-09-02T10:07:28.255Z,101981.41
2023-09-02T10:09:50.222Z,101991.38
2023-09-02T10:12:19.820Z,101987.69
2023-09-02T10:14:50.178Z,101992.09
2023-09-02T10:17:12.374Z,101994.19
2023-09-02T10:19:35.907Z,101991.41
2023-09-02T10:21:59.076Z,102005.06
2023-09-02T10:24:21.842Z,102000.69
2023-09-02T10:26:52.998Z,102012.34
2023-09-02T10:29:22.427Z,102008.78
2023-09-02T10:31:50.183Z,102008.81
2023-09-02T10:34:18.937Z,102016.50
2023-09-02T10:36:48.332Z,102013.31
2023-09-02T10:39:22.704Z,102018.59
2023-09-02T10:41:48.813Z,102019.03
2023-09-02T10:44:12.897Z,102017.84
2023-09-02T10:46:34.867Z,102011.06
2023-09-02T10:48:59.950Z,102019.91
2023-09-02T10:51:23.090Z,102029.53
2023-09-02T10:53:54.493Z,102029.97
2023-09-02T10:56:26.607Z,102024.06
2023-09-02T10:58:48.636Z,102032.03
2023-09-02T11:01:10.580Z,102026.34
2023-09-02T11:03:50.306Z,102027.28
2023-09-02T11:06:13.928Z,102026.19
2023-09-02T11:08:54.946Z,102018.66
2023-09-02T11:11:19.056Z,102020.69
2023-09-02T11:14:10.163Z,102025.31
2023-09-02T11:16:32.877Z,102020.53
2023-09-02T11:18:54.961Z,102024.63
2023-09-02T11:21:40.536Z,102016.69
2023-09-02T11:24:23.104Z,102031.94
2023-09-02T11:27:01.248Z,102031.63
2023-09-02T11:29:30.610Z,102032.91
2023-09-02T11:32:01.045Z,102022.50
2023-09-02T11:34:24.698Z,102030.13
2023-09-02T11:36:47.171Z,102032.19
2023-09-02T11:39:09.064Z,102029.06
2023-09-02T11:41:30.715Z,102032.28
2023-09-02T11:43:52.479Z,102030.31
2023-09-02T11:46:15.252Z,102032.31
2023-09-02T11:48:37.489Z,102035.13
2023-09-02T11:51:00.305Z,102037.56
2023-09-02T11:53:22.235Z,102041.53
2023-09-02T11:55:45.301Z,102047.59
2023-09-02T11:58:11.547Z,102047.66
2023-09-02T12:00:33.706Z,102040.59
2023-09-02T12:03:00.341Z,102049.25
2023-09-02T12:05:22.775Z,102051.75
2023-09-02T12:07:47.723Z,102063.31
2023-09-02T12:10:12.125Z,102057.72
2023-09-02T12:12:36.025Z,102059.41
2023-09-02T12:14:58.738Z,102068.25
2023-09-02T12:17:20.809Z,102065.03
2023-09-02T12:19:42.858Z,102069.44
2023-09-02T12:22:05.355Z,102069.81
2023-09-02T12:24:28.405Z,102079.44
2023-09-02T12:26:52.158Z,102089.81
2023-09-02T12:29:23.041Z,102094.63
2023-09-02T12:32:01.964Z,102097.03
2023-09-02T12:34:25.230Z,102095.41
2023-09-02T12:36:47.070Z,102095.00
2023-09-02T12:39:23.993Z,102092.97
2023-09-02T12:41:45.808Z,102094.66
2023-09-02T12:44:16.540Z,102089.47
2023-09-02T12:46:38.472Z,102082.75
2023-09-02T12:49:00.364Z,102091.38
2023-09-02T12:51:29.203Z,102089.47
2023-09-02T12:53:51.534Z,102090.72
2023-09-02T12:56:13.285Z,102089.66
2023-09-02T12:58:35.069Z,102090.56
2023-09-02T13:01:01.082Z,102083.34
2023-09-02T13:03:23.169Z,102087.81
2023-09-02T13:05:45.233Z,102085.44
2023-09-02T13:08:06.957Z,102087.94
2023-09-02T13:10:29.317Z,102090.47
2023-09-02T13:12:51.060Z,102088.94
2023-09-02T13:15:14.009Z,102090.09
2023-09-02T13:17:36.826Z,102085.91
2023-09-02T13:19:58.893Z,102090.69
2023-09-02T13:22:20.959Z,102084.94
2023-09-02T13:24:48.004Z,102082.50
2023-09-02T13:27:09.805Z,102083.19
2023-09-02T13:29:33.095Z,102097.63
2023-09-02T13:31:56.681Z,102091.94
2023-09-02T13:34:31.315Z,102101.97
2023-09-02T13:37:02.996Z,102100.34
2023-09-02T13:39:24.823Z,102097.50
2023-09-02T13:41:46.756Z,102096.69
2023-09-02T13:44:12.143Z,102092.72
2023-09-02T13:46:34.643Z,102095.19
2023-09-02T13:48:56.448Z,102090.50
2023-09-02T13:51:23.175Z,102097.03
2023-09-02T13:53:45.058Z,102091.91
2023-09-02T13:56:06.784Z,102095.19
2023-09-02T13:58:35.698Z,102099.28
2023-09-02T14:00:57.486Z,102103.38
2023-09-02T14:03:26.882Z,102098.28
2023-09-02T14:05:52.826Z,102103.16
2023-09-02T14:08:19.776Z,102091.13
2023-09-02T14:10:41.613Z,102098.81
2023-09-02T14:13:10.154Z,102095.63
2023-09-02T14:15:32.532Z,102091.66
2023-09-02T14:17:54.361Z,102094.50
2023-09-02T14:20:16.189Z,102095.31
2023-09-02T14:22:38.010Z,102092.16
2023-09-02T14:24:59.752Z,102100.19
2023-09-02T14:27:21.915Z,102095.38
2023-09-02T14:29:43.980Z,102088.94
2023-09-02T14:32:07.427Z,102087.75
2023-09-02T14:34:29.299Z,102088.97
2023-09-02T14:36:51.015Z,102082.94
2023-09-02T14:39:15.005Z,102085.31
2023-09-02T14:41:36.945Z,102080.91
2023-09-02T14:43:58.744Z,102083.31
2023-09-02T14:46:20.523Z,102077.28
2023-09-02T14:48:43.249Z,102084.09
2023-09-02T14:51:05.130Z,102075.25
2023-09-02T14:53:27.086Z,102073.22
2023-09-02T14:55:52.346Z,102076.00
2023-09-02T14:58:17.133Z,102078.41
2023-09-02T15:00:38.898Z,102070.34
2023-09-02T15:03:02.751Z,102066.75
2023-09-02T15:05:27.471Z,102071.22
2023-09-02T15:07:52.790Z,102068.44
2023-09-02T15:10:26.221Z,102073.66
2023-09-02T15:12:48.196Z,102063.56
2023-09-02T15:15:10.208Z,102067.59
2023-09-02T15:17:33.004Z,102063.19
2023-09-02T15:19:56.540Z,102068.03
2023-09-02T15:22:20.183Z,102071.66
2023-09-02T15:24:42.776Z,102071.25
2023-09-02T15:27:05.431Z,102078.09
2023-09-02T15:29:28.231Z,102085.75
2023-09-02T15:31:52.891Z,102080.53
2023-09-02T15:34:16.769Z,102084.09
2023-09-02T15:36:39.287Z,102087.72
2023-09-02T15:39:01.688Z,102090.56
2023-09-02T15:41:23.444Z,102103.44
2023-09-02T15:43:45.225Z,102097.00
2023-09-02T15:46:08.309Z,102098.63
2023-09-02T15:48:30.011Z,102093.78
2023-09-02T15:50:52.646Z,102101.84
2023-09-02T15:53:15.745Z,102106.69
2023-09-02T15:55:37.518Z,102103.47
2023-09-02T15:57:59.244Z,102105.47
2023-09-02T16:00:21.741Z,102102.63
2023-09-02T16:02:44.603Z,102101.75
2023-09-02T16:05:06.857Z,102100.91
2023-09-02T16:07:28.614Z,102114.16
2023-09-02T16:09:50.359Z,102100.44
2023-09-02T16:12:12.004Z,102108.47
2023-09-02T16:14:33.703Z,102114.50
2023-09-02T16:17:02.762Z,102113.28
2023-09-02T16:19:24.482Z,102116.13
2023-09-02T16:21:46.215Z,102124.19
2023-09-02T16:24:08.347Z,102129.88
2023-09-02T16:26:30.073Z,102135.13
2023-09-02T16:28:51.857Z,102122.22
2023-09-02T16:31:13.637Z,102127.84
2023-09-02T16:33:36.283Z,102127.47
2023-09-02T16:35:59.922Z,102139.16
2023-09-02T16:38:21.897Z,102131.50
2023-09-02T16:40:43.738Z,102137.16
2023-09-02T16:43:06.011Z,102135.13
2023-09-02T16:45:28.187Z,102136.31
2023-09-02T16:47:51.677Z,102135.13
2023-09-02T16:50:16.145Z,102131.88
2023-09-02T16:52:46.010Z,102132.28
2023-09-02T16:55:10.846Z,102126.22
2023-09-02T16:57:41.278Z,102128.63
2023-09-02T17:00:06.467Z,102122.56
2023-09-02T17:02:34.531Z,102124.97
2023-09-02T17:04:59.466Z,102131.03
2023-09-02T17:07:21.110Z,102133.03
2023-09-02T17:09:42.922Z,102134.59
2023-09-02T17:12:07.845Z,102128.56
2023-09-02T17:14:29.789Z,102123.31
2023-09-02T17:16:52.622Z,102130.88
2023-09-02T17:19:20.264Z,102140.84
2023-09-02T17:21:42.492Z,102143.19
2023-09-02T17:24:04.790Z,102143.13
2023-09-02T17:26:26.568Z,102143.06
2023-09-02T17:28:49.418Z,102145.06
2023-09-02T17:31:11.206Z,102148.63
2023-09-02T17:33:35.143Z,102152.63
2023-09-02T17:35:57.039Z,102150.53
2023-09-02T17:38:19.192Z,102156.53
2023-09-02T17:40:41.059Z,102153.28
2023-09-02T17:43:02.936Z,102161.66
2023-09-02T17:45:25.105Z,102157.97
2023-09-02T17:47:49.114Z,102158.66
2023-09-02T17:50:12.707Z,102169.06
2023-09-02T17:52:34.409Z,102171.38
2023-09-02T17:54:56.753Z,102164.50
2023-09-02T17:57:18.695Z,102173.63
2023-09-02T17:59:40.374Z,102175.19
2023-09-02T18:02:06.146Z,102174.34
2023-09-02T18:04:28.419Z,102179.09
2023-09-02T18:06:50.060Z,102187.06
2023-09-02T18:09:11.760Z,102189.00
2023-09-02T18:11:34.280Z,102181.75
2023-09-02T18:13:55.994Z,102191.31
2023-09-02T18:16:17.785Z,102192.50
2023-09-02T18:18:39.627Z,102194.84
2023-09-02T18:21:01.308Z,102205.19
2023-09-02T18:23:23.103Z,102215.56
2023-09-02T18:25:44.826Z,102217.88
2023-09-02T18:28:06.673Z,102223.81
2023-09-02T18:30:28.338Z,102224.59
2023-09-02T18:32:50.115Z,102218.91
2023-09-02T18:35:11.933Z,102227.28
2023-09-02T18:37:34.211Z,102228.41
2023-09-02T18:39:55.934Z,102229.53
2023-09-02T18:42:17.592Z,102245.91
2023-09-02T18:44:39.270Z,102239.41
2023-09-02T18:47:01.079Z,102240.53
2023-09-02T18:49:22.775Z,102249.34
2023-09-02T18:51:44.716Z,102251.63
2023-09-02T18:54:06.549Z,102258.78
2023-09-02T18:56:29.404Z,102264.31
2023-09-02T18:58:51.095Z,102265.38
2023-09-02T19:01:13.649Z,102265.31
2023-09-02T19:03:35.440Z,102263.25
2023-09-02T19:05:57.130Z,102262.38
2023-09-02T19:08:19.121Z,102262.72
2023-09-02T19:10:41.055Z,102268.63
2023-09-02T19:13:03.105Z,102268.56
2023-09-02T19:15:24.763Z,102266.91
2023-09-02T19:17:46.704Z,102264.00
2023-09-02T19:20:09.170Z,102266.31
2023-09-02T19:22:40.888Z,102271.03
2023-09-02T19:25:02.608Z,102266.53
2023-09-02T19:27:24.679Z,102270.09
2023-09-02T19:29:46.314Z,102276.44
2023-09-02T19:32:09.784Z,102269.50
2023-09-02T19:34:31.529Z,102282.19
2023-09-02T19:36:53.191Z,102276.91
2023-09-02T19:39:20.549Z,102278.81
2023-09-02T19:41:42.248Z,102277.91
2023-09-02T19:44:04.217Z,102271.44
2023-09-02T19:46:26.056Z,102284.56
2023-09-02T19:48:47.833Z,102284.03
2023-09-02T19:51:09.571Z,102292.31
2023-09-02T19:53:31.365Z,102290.16
2023-09-02T19:55:54.767Z,102294.44
2023-09-02T19:58:16.576Z,102295.53
2023-09-02T20:00:46.516Z,102298.63
2023-09-02T20:03:09.682Z,102301.31
2023-09-02T20:05:31.541Z,102308.84
2023-09-02T20:07:53.184Z,102310.28
2023-09-02T20:10:17.205Z,102306.59
2023-09-02T20:12:39.106Z,102305.72
2023-09-02T20:15:00.781Z,102311.22
2023-09-02T20:17:22.470Z,102312.75
2023-09-02T20:19:44.292Z,102316.28
2023-09-02T20:22:06.275Z,102324.59
2023-09-02T20:24:29.007Z,102327.63
2023-09-02T20:26:52.268Z,102327.56
2023-09-02T20:29:13.907Z,102325.84
2023-09-02T20:31:35.570Z,102323.78
2023-09-02T20:33:57.475Z,102329.66
2023-09-02T20:36:20.705Z,102327.53
2023-09-02T20:38:46.274Z,102341.09
2023-09-02T20:41:08.032Z,102339.47
2023-09-02T20:43:29.655Z,102338.53
2023-09-02T20:45:51.362Z,102341.56
2023-09-02T20:48:13.214Z,102345.47
2023-09-02T20:50:40.221Z,102351.69
2023-09-02T20:53:01.854Z,102358.34
2023-09-02T20:55:23.747Z,102358.22
2023-09-02T20:57:46.259Z,102359.31
2023-09-02T21:00:08.705Z,102374.00
2023-09-02T21:02:30.541Z,102374.25
2023-09-02T21:04:52.322Z,102372.53
2023-09-02T21:07:14.134Z,102377.63
2023-09-02T21:09:35.759Z,102376.38
2023-09-02T21:11:57.460Z,102377.91
2023-09-02T21:14:19.151Z,102386.19
2023-09-02T21:16:40.934Z,102376.53
2023-09-02T21:19:02.634Z,102388.88
2023-09-02T21:21:24.471Z,102386.44
2023-09-02T21:23:46.287Z,102388.31
2023-09-02T21:26:12.463Z,102395.41
2023-09-02T21:28:37.875Z,102389.75
2023-09-02T21:30:59.540Z,102399.25
2023-09-02T21:33:21.235Z,102397.19
2023-09-02T21:35:42.856Z,102396.72
2023-09-02T21:38:04.836Z,102396.63
2023-09-02T21:40:26.658Z,102401.75
2023-09-02T21:42:48.305Z,102398.03
2023-09-02T21:45:10.647Z,102408.72
2023-09-02T21:47:32.519Z,102403.03
2023-09-02T21:49:54.297Z,102404.53
2023-09-02T21:52:22.682Z,102405.69
2023-09-02T21:54:45.733Z,102407.19
2023-09-02T21:57:07.558Z,102411.50
2023-09-02T21:59:29.221Z,102403.03
2023-09-02T22:01:50.974Z,102401.75
2023-09-02T22:04:12.700Z,102409.19
2023-09-02T22:06:35.043Z,102408.63
2023-09-02T22:08:57.111Z,102422.13
2023-09-02T22:11:19.574Z,102426.41
2023-09-02T22:13:45.036Z,102430.34
2023-09-02T22:16:07.628Z,102429.91
2023-09-02T22:18:29.961Z,102426.66
2023-09-02T22:20:53.818Z,102428.97
2023-09-02T22:23:15.783Z,102426.88
2023-09-02T22:25:39.087Z,102440.38
2023-09-02T22:28:00.732Z,102436.63
2023-09-02T22:30:22.380Z,102444.44
2023-09-02T22:32:44.124Z,102448.25
2023-09-02T22:35:06.345Z,102460.78
2023-09-02T22:37:28.026Z,102464.03
2023-09-02T22:39:49.759Z,102463.28
2023-09-02T22:42:11.415Z,102462.22
2023-09-02T22:44:33.070Z,102463.25
2023-09-02T22:46:55.201Z,102463.63
2023-09-02T22:49:28.323Z,102462.63
2023-09-02T22:51:49.961Z,102467.63
2023-09-02T22:54:11.597Z,102463.88
2023-09-02T22:56:33.303Z,102468.50
2023-09-02T22:58:55.072Z,102470.00
2023-09-02T23:01:16.722Z,102469.19
2023-09-02T23:03:38.793Z,102463.59
2023-09-02T23:06:10.470Z,102466.41
2023-09-02T23:08:32.982Z,102466.75
2023-09-02T23:10:59.021Z,102462.00
2023-09-02T23:13:20.966Z,102453.16
2023-09-02T23:15:42.919Z,102464.78
2023-09-02T23:18:05.001Z,102467.56
2023-09-02T23:20:28.836Z,102464.31
2023-09-02T23:22:51.690Z,102466.59
2023-09-02T23:25:14.252Z,102466.59
2023-09-02T23:27:35.942Z,102464.16
2023-09-02T23:29:58.436Z,102460.06
2023-09-02T23:32:21.722Z,102454.06
2023-09-02T23:34:43.374Z,102455.19
2023-09-02T23:37:05.532Z,102447.53
2023-09-02T23:39:27.240Z,102447.03
2023-09-02T23:41:48.877Z,102450.84
2023-09-02T23:44:10.541Z,102446.28
2023-09-02T23:46:32.313Z,102459.31
2023-09-02T23:48:54.173Z,102458.81
2023-09-02T23:51:15.863Z,102465.41
2023-09-02T23:53:38.653Z,102469.69
2023-09-02T23:56:00.295Z,102465.59
2023-09-02T23:58:22.223Z,102467.44
